Pocklington, United Kingdom
Current Conditions -  °F | °C
As of 11:50 PM on Thursday 27 Nov 2014 (Local Time) from EGXV Reporting Station
Haze Haze  
Wind Chill: 45°   Ceiling: 800
Heat Index: 45°   Visibility: 4mi
Dew Point: 45°   Wind: 2mph
Humidity: 100%   Direction: 10°N
Pressure: 29.65"   Gusts: NA
Location:  53.93°N, 0.78°W
Report Text: EGXV 272350Z AUTO 01002KT 7000 BR BKN008/// BKN070/// 07/07 Q1004
Loading
Personal Weather Stations






























Interactive Weather Map New forecast layout! Learn more

10-Day Weather Forecast

Advertisements
Track Severe Weather on mobile